Wibaux, MT (59353)

9:00 PM MST on February 05, 2016 (GMT -0700)
Beach | | Change Station
CLOSE
Current Station
Airport
Location: Beach,
Elevation: 2756 ft
Nearby Weather Stations
Active Advisory: High Wind Warning

Elev 2756 ft 46.93 °N, 103.99 °W | Updated 25 minutes ago

Clear
Clear
32 °F
Feels Like 23 °F
N
12
Wind Variable Wind from SW

Today
High -- | Low -- °F
--% Chance of Precip.
Yesterday
High -- | Low -- °F
Precip. -- in
Pressure 30.04 in
Visibility 10.0 miles
Clouds Clear
Windchill 23 °F
Dew Point 23 °F
Humidity 69%
Rainfall 0.18 in
Snow Depth Not available.
7:16 AM 5:05 PM
Waning Crescent, 8% visible
METAR K20U 060335Z AUTO 23010KT 10SM CLR 00/M05 A3004 RMK AO2
Pressure 30.04 in
Visibility 10.0 miles
Clouds Clear
Windchill 23 °F
Dew Point 23 °F
Humidity 69%
Rainfall 0.18 in
Snow Depth Not available.
7:16 AM 5:05 PM
Waning Crescent, 8% visible
METAR K20U 060335Z AUTO 23010KT 10SM CLR 00/M05 A3004 RMK AO2

10-Day Weather Forecast

Almanac

Astronomy

Feb. 05, 2016 Rise Set
Actual Time
Civil Twilight
Nautical Twilight
Astronomical Twilight
Moon
Length of Visible Light
Length of Day
Tomorrow will be .
, % of the Moon is Illuminated

Today's Extremes

State Highs State Lows

Community

WunderPhotos

Upload Photos

1,890,922 photos uploaded!

WunderBlog® & News

Nearby

Air Quality

  Air Quality AQ Index Pollutant
Not available.

Snow Depth

Station Depth Elevation

Earthquake Activity

City Distance Mag. Time & Date
Minimum magnitude displayed is 2.5.

Coastal Water Temperatures

Place Temperature

Stations

Nearby Weather Stations

Station Location Temp. Windchill Dew Point Humidity Wind Precip. Elev Updated Type
                   

Watches & Warnings

High Wind Warning
Issued: 2:34 PM MST Feb. 5, 2016 – National Weather Service

... High Wind Warning in effect from 11 am Saturday to 5 PM MST
Sunday...

The National Weather Service in Glasgow has issued a High Wind
Warning... which is in effect from 11 am Saturday to 5 PM MST
Sunday. The high wind watch is no longer in effect.

* Winds... northwest at 30 to 40 mph. Gusts up to 60 mph.

* Timing... winds will begin increasing late Saturday morning and
continue through Sunday... diminishing only slightly Saturday
night.

* Impacts... the strong winds may make travel difficult
especially for high profile vehicles on north-south oriented
roads.

Precautionary/preparedness actions...

A High Wind Warning means a hazardous high wind event is expected
or occurring. Sustained wind speeds of at least 40 mph or gusts
of 58 mph or more can lead to property damage.